.
WxDataArchive / Data Records for 2012-03-17
2012-03-16 March 2012 2012-03-18

Data Records for Saturday, 17 March 2012

Time	Temp	Chill	HIndex	Humid	Dewpt	 Wind 	HiWind	WindDir	Rain 	Barom 
-----	----	-----	------	-----	-----	------	------	-------	-----	----- 
00:00	62.4	62.4	62.4	71	52.9	0	2	270	0.00	30.108 
00:05	62.4	62.4	62.4	71	52.9	0	1	270	0.00	30.108 
00:10	62.4	62.4	62.4	71	52.9	0	0	---	0.00	30.108 
00:15	62.4	62.4	62.4	71	52.9	0	0	---	0.00	30.107 
00:20	62.3	62.3	62.3	71	52.8	0	1	270	0.00	30.107 
00:25	62.3	62.3	62.3	71	52.8	0	1	270	0.00	30.107 
00:30	62.3	62.3	62.3	71	52.8	0	2	270	0.00	30.105 
00:35	62.4	62.4	62.4	71	52.9	0	2	270	0.00	30.105 
00:40	62.4	62.4	62.4	71	52.9	0	2	270	0.00	30.105 
00:45	62.6	62.6	62.6	71	53.1	0	2	270	0.00	30.103 
00:50	62.7	62.7	62.7	70	52.8	1	3	270	0.00	30.103 
00:55	62.9	62.9	62.9	70	53.0	1	3	270	0.00	30.103 
01:00	63.1	63.1	63.1	70	53.2	0	1	248	0.00	30.103 
01:05	62.7	62.7	62.7	70	52.8	0	2	248	0.00	30.103 
01:10	62.6	62.6	62.6	70	52.7	0	1	248	0.00	30.103 
01:15	62.3	62.3	62.3	71	52.8	0	1	248	0.00	30.102 
01:20	62.0	62.0	62.0	72	52.9	0	1	248	0.00	30.102 
01:25	61.6	61.6	61.6	73	52.9	0	1	248	0.00	30.102 
01:30	61.5	61.5	61.5	73	52.8	0	0	---	0.00	30.102 
01:35	61.2	61.2	61.2	73	52.5	0	0	---	0.00	30.102 
01:40	61.0	61.0	61.0	74	52.6	0	2	248	0.00	30.102 
01:45	60.7	60.7	60.7	75	52.7	0	1	248	0.00	30.102 
01:50	60.5	60.5	60.5	75	52.5	0	1	248	0.00	30.102 
01:55	60.2	60.2	60.2	76	52.6	0	0	---	0.00	30.102 
02:00	60.1	60.1	60.1	77	52.9	0	1	248	0.00	30.102 
02:05	59.9	59.9	59.9	77	52.7	0	1	248	0.00	30.102 
02:10	59.6	59.6	59.6	77	52.4	0	1	248	0.00	30.102 
02:15	59.5	59.5	59.5	78	52.6	0	2	248	0.00	30.101 
02:20	59.5	59.5	59.5	79	53.0	0	2	248	0.00	30.101 
02:25	59.3	59.3	59.3	79	52.8	0	0	---	0.00	30.101 
02:30	59.2	59.2	59.2	79	52.7	0	0	---	0.00	30.102 
02:35	58.9	58.9	58.9	79	52.4	0	0	---	0.00	30.102 
02:40	58.7	58.7	58.7	80	52.5	0	1	248	0.00	30.102 
02:45	58.6	58.6	58.6	81	52.8	0	1	248	0.00	30.102 
02:50	58.3	58.3	58.3	81	52.5	0	0	---	0.00	30.102 
02:55	58.1	58.1	58.1	81	52.3	0	0	---	0.00	30.102 
03:00	58.0	58.0	58.0	82	52.5	0	1	248	0.00	30.104 
03:05	57.8	57.8	57.8	82	52.3	0	0	---	0.00	30.104 
03:10	57.6	57.6	57.6	83	52.5	0	0	---	0.00	30.104 
03:15	57.3	57.3	57.3	83	52.2	0	0	---	0.00	30.105 
03:20	57.2	57.2	57.2	84	52.4	0	1	248	0.00	30.105 
03:25	56.9	56.9	56.9	84	52.1	0	0	---	0.00	30.105 
03:30	56.9	56.9	56.9	84	52.1	0	1	248	0.00	30.107 
03:35	56.7	56.7	56.7	85	52.2	0	0	---	0.00	30.107 
03:40	56.6	56.6	56.6	85	52.1	0	0	---	0.00	30.107 
03:45	56.6	56.6	56.6	86	52.5	0	0	---	0.00	30.107 
03:50	56.5	56.5	56.5	86	52.4	0	0	---	0.00	30.107 
03:55	56.3	56.3	56.3	86	52.2	0	0	---	0.00	30.107 
04:00	56.2	56.2	56.2	86	52.1	0	0	---	0.00	30.109 
04:05	55.9	55.9	55.9	87	52.1	0	0	---	0.00	30.109 
04:10	55.7	55.7	55.7	87	51.9	0	0	---	0.00	30.109 
04:15	55.4	55.4	55.4	87	51.6	0	0	---	0.00	30.112 
04:20	55.1	55.1	55.1	87	51.3	0	0	---	0.00	30.112 
04:25	55.0	55.0	55.0	88	51.5	0	0	---	0.00	30.112 
04:30	54.8	54.8	54.8	88	51.3	0	0	---	0.00	30.110 
04:35	54.5	54.5	54.5	88	51.0	0	0	---	0.00	30.110 
04:40	54.4	54.4	54.4	88	50.9	0	0	---	0.00	30.110 
04:45	53.9	53.9	53.9	88	50.4	0	0	---	0.00	30.111 
04:50	53.6	53.6	53.6	88	50.1	0	0	---	0.00	30.111 
04:55	53.5	53.5	53.5	89	50.3	0	0	---	0.00	30.111 
05:00	53.2	53.2	53.2	89	50.0	0	0	---	0.00	30.113 
05:05	53.1	53.1	53.1	90	50.2	0	0	---	0.00	30.113 
05:10	52.9	52.9	52.9	90	50.0	0	0	---	0.00	30.113 
05:15	52.8	52.8	52.8	91	50.2	0	0	---	0.00	30.117 
05:20	52.5	52.5	52.5	91	49.9	0	0	---	0.00	30.117 
05:25	52.3	52.3	52.3	91	49.8	0	0	---	0.00	30.117 
05:30	52.0	52.0	52.0	91	49.5	0	0	---	0.00	30.123 
05:35	51.9	51.9	51.9	91	49.4	0	0	---	0.00	30.123 
05:40	51.7	51.7	51.7	92	49.5	0	0	---	0.00	30.123 
05:45	51.6	51.6	51.6	92	49.4	0	0	---	0.00	30.123 
05:50	51.4	51.4	51.4	92	49.2	0	0	---	0.00	30.123 
05:55	51.1	51.1	51.1	92	48.9	0	0	---	0.00	30.123 
06:00	51.0	51.0	51.0	92	48.8	0	0	---	0.00	30.124 
06:05	50.8	50.8	50.8	92	48.6	0	0	---	0.00	30.124 
06:10	50.7	50.7	50.7	92	48.5	0	0	---	0.00	30.124 
06:15	50.5	50.5	50.5	92	48.3	0	0	---	0.00	30.126 
06:20	50.4	50.4	50.4	92	48.2	0	0	---	0.00	30.126 
06:25	50.4	50.4	50.4	93	48.5	0	0	---	0.00	30.126 
06:30	50.4	50.4	50.4	93	48.5	0	0	---	0.00	30.132 
06:35	50.4	50.4	50.4	93	48.5	0	0	---	0.00	30.132 
06:40	50.2	50.2	50.2	93	48.3	0	0	---	0.00	30.132 
06:45	49.9	49.9	49.9	93	48.0	0	0	---	0.00	30.133 
06:50	49.8	49.8	49.8	93	47.9	0	0	---	0.00	30.133 
06:55	49.6	49.6	49.6	93	47.7	0	0	---	0.00	30.133 
07:00	49.5	49.5	49.5	93	47.6	0	0	---	0.00	30.140 
07:05	49.6	49.6	49.6	94	47.9	0	0	---	0.00	30.140 
07:10	49.8	49.8	49.8	94	48.1	0	0	---	0.00	30.140 
07:15	49.8	49.8	49.8	94	48.1	0	0	---	0.00	30.144 
07:20	50.1	50.1	50.1	94	48.4	0	0	---	0.00	30.144 
07:25	50.4	50.4	50.4	95	49.0	0	0	---	0.00	30.144 
07:30	50.4	50.4	50.4	94	48.7	0	0	---	0.00	30.147 
07:35	50.1	50.1	50.1	94	48.4	0	0	---	0.00	30.147 
07:40	49.9	49.9	49.9	94	48.2	0	0	---	0.00	30.147 
07:45	49.6	49.6	49.6	94	47.9	0	0	---	0.00	30.153 
07:50	49.4	49.4	49.4	94	47.7	0	0	---	0.00	30.153 
07:55	49.1	49.1	49.1	94	47.4	0	0	---	0.00	30.153 
08:00	48.9	48.9	48.9	94	47.2	0	0	---	0.00	30.158 
08:05	48.8	48.8	48.8	94	47.1	0	0	---	0.00	30.158 
08:10	48.8	48.8	48.8	95	47.4	0	0	---	0.00	30.158 
08:15	48.9	48.9	48.9	95	47.5	0	0	---	0.00	30.163 
08:20	48.9	48.9	48.9	95	47.5	0	0	---	0.00	30.163 
08:25	49.2	49.2	49.2	95	47.8	0	0	---	0.00	30.163 
08:30	49.6	49.6	49.6	96	48.5	0	0	---	0.00	30.164 
08:35	50.4	50.4	50.4	96	49.3	0	0	---	0.00	30.164 
08:40	51.1	51.1	51.1	96	50.0	0	0	---	0.00	30.164 
08:45	52.0	52.0	52.0	96	50.9	0	1	248	0.00	30.161 
08:50	52.6	52.6	52.6	96	51.5	0	2	248	0.00	30.161 
08:55	52.9	52.9	52.9	95	51.5	0	1	248	0.00	30.161 
09:00	53.3	53.3	53.3	95	51.9	1	3	270	0.00	30.161 
09:05	53.6	53.6	53.6	95	52.2	1	3	270	0.00	30.161 
09:10	54.1	54.1	54.1	94	52.4	1	3	270	0.00	30.161 
09:15	54.4	54.4	54.4	94	52.7	0	2	270	0.00	30.164 
09:20	54.8	54.8	54.8	94	53.1	0	2	270	0.00	30.164 
09:25	55.3	55.3	55.3	94	53.6	0	2	45	0.00	30.164 
09:30	55.7	55.7	55.7	93	53.7	1	3	45	0.00	30.163 
09:35	56.3	56.3	56.3	93	54.3	1	3	68	0.00	30.163 
09:40	56.7	56.7	56.7	92	54.4	1	2	135	0.00	30.163 
09:45	57.2	57.2	57.2	91	54.6	1	3	112	0.00	30.161 
09:50	57.5	57.5	57.5	90	54.6	1	2	112	0.00	30.161 
09:55	58.0	58.0	58.0	90	55.1	1	2	112	0.00	30.161 
10:00	58.4	58.4	58.4	88	54.9	1	2	112	0.00	30.161 
10:05	59.0	59.0	59.0	88	55.4	1	3	112	0.00	30.161 
10:10	59.6	59.6	59.6	86	55.4	0	2	112	0.00	30.161 
10:15	60.4	60.4	60.4	85	55.9	0	2	112	0.00	30.158 
10:20	61.2	61.2	61.2	84	56.3	0	2	112	0.00	30.158 
10:25	61.8	61.8	61.8	81	55.9	1	3	112	0.00	30.158 
10:30	62.4	62.4	62.4	80	56.1	1	3	112	0.00	30.157 
10:35	63.1	63.1	63.1	78	56.1	1	3	135	0.00	30.157 
10:40	63.9	63.9	63.9	77	56.5	0	2	90	0.00	30.157 
10:45	64.5	64.5	64.5	76	56.8	0	2	90	0.00	30.156 
10:50	65.3	65.3	65.3	74	56.8	0	2	90	0.00	30.156 
10:55	66.0	66.0	66.0	73	57.1	0	3	90	0.00	30.156 
11:00	66.6	66.6	66.6	72	57.3	0	2	90	0.00	30.156 
11:05	67.1	67.1	67.1	71	57.4	0	2	90	0.00	30.156 
11:10	67.4	67.4	67.4	71	57.7	1	3	90	0.00	30.156 
11:15	67.8	67.8	67.8	70	57.6	0	1	90	0.00	30.155 
11:20	68.3	68.3	68.3	69	57.7	0	3	90	0.00	30.155 
11:25	68.6	68.6	68.6	68	57.6	1	3	90	0.00	30.155 
11:30	68.9	68.9	68.9	67	57.5	0	1	90	0.00	30.158 
11:35	69.3	69.3	69.3	66	57.4	0	2	90	0.00	30.158 
11:40	69.6	69.6	69.6	64	56.9	2	5	90	0.00	30.158 
11:45	69.9	69.9	69.9	64	57.2	1	3	338	0.00	30.152 
11:50	70.1	70.1	70.1	63	56.9	2	5	135	0.00	30.152 
11:55	70.1	70.1	70.1	65	57.8	1	4	270	0.00	30.152 
12:00	70.4	70.4	70.4	63	57.2	1	4	112	0.00	30.150 
12:05	70.8	70.8	70.8	62	57.1	1	4	315	0.00	30.150 
12:10	71.3	71.3	71.3	61	57.1	1	4	112	0.00	30.150 
12:15	71.3	71.3	71.3	61	57.1	1	4	270	0.00	30.148 
12:20	71.8	71.8	71.8	59	56.7	2	5	90	0.00	30.148 
12:25	72.0	72.0	72.0	59	56.9	2	5	90	0.00	30.148 
12:30	72.5	72.5	72.5	55	55.4	2	5	90	0.00	30.139 
12:35	72.7	72.7	72.7	55	55.6	3	7	112	0.00	30.139 
12:40	73.0	73.0	73.0	55	55.9	1	6	90	0.00	30.139 
12:45	73.0	73.0	73.0	55	55.9	2	5	90	0.00	30.134 
12:50	73.0	73.0	73.0	55	55.9	2	6	112	0.00	30.134 
12:55	73.2	73.2	73.2	55	56.0	2	5	68	0.00	30.134 
13:00	73.5	73.5	73.5	53	55.3	2	7	90	0.00	30.131 
13:05	73.5	73.5	73.5	55	56.3	2	5	68	0.00	30.131 
13:10	73.5	73.5	73.5	54	55.8	3	6	90	0.00	30.131 
13:15	73.3	73.3	73.3	55	56.1	3	7	112	0.00	30.128 
13:20	73.5	73.5	73.5	55	56.3	3	9	90	0.00	30.128 
13:25	73.5	73.5	73.5	55	56.3	2	9	68	0.00	30.128 
13:30	73.9	73.9	73.9	55	56.7	2	5	68	0.00	30.118 
13:35	73.9	73.9	73.9	56	57.2	3	7	90	0.00	30.118 
13:40	74.0	74.0	74.0	55	56.8	2	5	90	0.00	30.118 
13:45	74.0	74.0	74.0	53	55.8	2	10	90	0.00	30.118 
13:50	74.2	74.2	74.2	53	56.0	2	8	90	0.00	30.118 
13:55	74.4	74.4	74.4	53	56.1	3	9	90	0.00	30.118 
14:00	74.4	74.4	74.4	50	54.5	3	7	112	0.00	30.112 
14:05	74.6	74.6	74.6	52	55.8	3	9	90	0.00	30.112 
14:10	74.6	74.6	74.6	51	55.3	3	7	112	0.00	30.112 
14:15	74.7	74.7	74.7	50	54.8	3	5	90	0.00	30.105 
14:20	74.6	74.6	74.6	50	54.7	3	7	112	0.00	30.105 
14:25	74.4	74.4	74.4	51	55.1	2	9	90	0.00	30.105 
14:30	74.6	74.6	74.6	51	55.3	1	4	68	0.00	30.100 
14:35	74.9	74.9	74.9	50	55.0	4	11	112	0.00	30.100 
14:40	74.9	74.9	74.9	50	55.0	2	6	90	0.00	30.100 
14:45	74.6	74.6	74.6	49	54.2	3	9	112	0.00	30.094 
14:50	74.6	74.6	74.6	50	54.7	3	6	90	0.00	30.094 
14:55	74.6	74.6	74.6	50	54.7	3	7	90	0.00	30.094 
15:00	74.9	74.9	74.9	51	55.5	2	6	45	0.00	30.087 
15:05	75.1	75.1	77.7	49	54.6	3	11	68	0.00	30.087 
15:10	75.3	75.3	77.7	49	54.8	3	7	112	0.00	30.087 
15:15	75.3	75.3	77.7	49	54.8	2	7	112	0.00	30.084 
15:20	75.1	75.1	77.7	48	54.1	2	6	90	0.00	30.084 
15:25	75.1	75.1	77.7	48	54.1	2	5	112	0.00	30.084 
15:30	74.9	74.9	74.9	50	55.0	1	4	180	0.00	30.075 
15:35	74.7	74.7	74.7	50	54.8	1	6	112	0.00	30.075 
15:40	74.7	74.7	74.7	50	54.8	3	10	90	0.00	30.075 
15:45	74.7	74.7	74.7	51	55.4	2	4	68	0.00	30.072 
15:50	75.1	75.1	77.7	48	54.1	2	5	90	0.00	30.072 
15:55	75.3	75.3	77.7	48	54.2	2	6	90	0.00	30.072 
16:00	75.4	75.4	77.8	49	54.9	2	7	112	0.00	30.064 
16:05	75.4	75.4	77.8	49	54.9	3	7	112	0.00	30.064 
16:10	75.4	75.4	77.8	47	53.7	3	9	112	0.00	30.064 
16:15	75.3	75.3	77.7	50	55.4	2	6	90	0.00	30.062 
16:20	75.3	75.3	77.7	49	54.8	2	6	270	0.00	30.062 
16:25	74.7	74.7	74.7	51	55.4	1	4	202	0.00	30.062 
16:30	75.1	75.1	77.7	50	55.2	2	5	90	0.00	30.060 
16:35	75.4	75.4	77.8	50	55.4	2	5	45	0.00	30.060 
16:40	75.4	75.4	77.8	51	56.0	2	5	270	0.00	30.060 
16:45	75.3	75.3	77.7	49	54.8	2	6	112	0.00	30.059 
16:50	75.3	75.3	77.7	48	54.2	1	5	112	0.00	30.059 
16:55	75.4	75.4	77.8	50	55.4	2	5	112	0.00	30.059 
17:00	75.4	75.4	77.8	49	54.9	2	5	112	0.00	30.057 
17:05	74.9	74.9	74.9	50	55.0	3	6	112	0.00	30.057 
17:10	74.2	74.2	74.2	52	55.4	2	4	112	0.00	30.057 
17:15	73.7	73.7	73.7	53	55.5	1	4	90	0.00	30.059 
17:20	73.3	73.3	73.3	53	55.1	1	4	90	0.00	30.059 
17:25	73.2	73.2	73.2	53	55.0	2	5	112	0.00	30.059 
17:30	73.2	73.2	73.2	55	56.0	1	4	45	0.00	30.055 
17:35	73.5	73.5	73.5	55	56.3	1	5	45	0.00	30.055 
17:40	73.9	73.9	73.9	54	56.2	2	6	90	0.00	30.055 
17:45	74.2	74.2	74.2	54	56.5	1	3	90	0.00	30.049 
17:50	74.4	74.4	74.4	53	56.1	2	6	270	0.00	30.049 
17:55	74.2	74.2	74.2	54	56.5	1	3	270	0.00	30.049 
18:00	73.9	73.9	73.9	54	56.2	1	2	270	0.00	30.047 
18:05	73.3	73.3	73.3	52	54.6	2	4	22	0.00	30.047 
18:10	72.8	72.8	72.8	52	54.1	1	4	90	0.00	30.047 
18:15	72.8	72.8	72.8	53	54.7	1	3	112	0.00	30.050 
18:20	73.2	73.2	73.2	51	54.0	2	7	90	0.00	30.050 
18:25	73.3	73.3	73.3	51	54.1	2	5	112	0.00	30.050 
18:30	73.3	73.3	73.3	52	54.6	2	5	68	0.00	30.050 
18:35	73.2	73.2	73.2	53	55.0	3	5	90	0.00	30.050 
18:40	73.0	73.0	73.0	54	55.4	1	3	112	0.00	30.050 
18:45	73.0	73.0	73.0	53	54.8	1	4	112	0.00	30.052 
18:50	72.7	72.7	72.7	54	55.1	1	4	90	0.00	30.052 
18:55	72.3	72.3	72.3	54	54.7	1	4	90	0.00	30.052 
19:00	72.1	72.1	72.1	54	54.5	1	3	112	0.00	30.062 
19:05	72.1	72.1	72.1	55	55.0	2	5	112	0.00	30.062 
19:10	72.1	72.1	72.1	55	55.0	2	4	90	0.00	30.062 
19:15	71.8	71.8	71.8	56	55.2	1	4	90	0.00	30.070 
19:20	71.6	71.6	71.6	56	55.1	1	2	135	0.00	30.070 
19:25	71.3	71.3	71.3	56	54.8	1	3	112	0.00	30.070 
19:30	71.1	71.1	71.1	56	54.6	1	3	135	0.00	30.071 
19:35	70.9	70.9	70.9	56	54.4	1	3	112	0.00	30.071 
19:40	70.8	70.8	70.8	57	54.8	1	2	112	0.00	30.071 
19:45	70.4	70.4	70.4	58	54.9	1	3	112	0.00	30.071 
19:50	70.1	70.1	70.1	58	54.6	1	3	112	0.00	30.071 
19:55	69.8	69.8	69.8	59	54.8	0	3	158	0.00	30.071 
20:00	69.4	69.4	69.4	59	54.4	0	2	180	0.00	30.069 
20:05	69.1	69.1	69.1	61	55.1	0	3	158	0.00	30.069 
20:10	68.6	68.6	68.6	62	55.0	0	1	158	0.00	30.069 
20:15	68.1	68.1	68.1	62	54.6	0	1	158	0.00	30.066 
20:20	67.8	67.8	67.8	63	54.7	0	1	158	0.00	30.066 
20:25	67.3	67.3	67.3	64	54.7	0	0	---	0.00	30.066 
20:30	66.9	66.9	66.9	64	54.3	0	0	---	0.00	30.067 
20:35	66.6	66.6	66.6	65	54.5	0	1	158	0.00	30.067 
20:40	66.3	66.3	66.3	65	54.2	0	1	158	0.00	30.067 
20:45	66.0	66.0	66.0	66	54.3	0	1	158	0.00	30.069 
20:50	65.6	65.6	65.6	67	54.3	0	0	---	0.00	30.069 
20:55	65.3	65.3	65.3	67	54.1	0	0	---	0.00	30.069 
21:00	65.0	65.0	65.0	68	54.2	0	0	---	0.00	30.070 
21:05	64.8	64.8	64.8	69	54.4	0	0	---	0.00	30.070 
21:10	64.7	64.7	64.7	69	54.3	0	0	---	0.00	30.070 
21:15	64.3	64.3	64.3	69	53.9	0	0	---	0.00	30.065 
21:20	64.2	64.2	64.2	70	54.2	0	0	---	0.00	30.065 
21:25	63.9	63.9	63.9	71	54.3	0	0	---	0.00	30.065 
21:30	63.7	63.7	63.7	71	54.1	0	0	---	0.00	30.064 
21:35	63.5	63.5	63.5	72	54.3	0	0	---	0.00	30.064 
21:40	63.4	63.4	63.4	72	54.2	0	0	---	0.00	30.064 
21:45	63.1	63.1	63.1	73	54.3	0	0	---	0.00	30.063 
21:50	62.9	62.9	62.9	74	54.5	0	0	---	0.00	30.063 
21:55	62.9	62.9	62.9	74	54.5	0	0	---	0.00	30.063 
22:00	62.9	62.9	62.9	74	54.5	0	0	---	0.00	30.065 
22:05	62.6	62.6	62.6	74	54.2	0	0	---	0.00	30.065 
22:10	62.4	62.4	62.4	74	54.0	0	0	---	0.00	30.065 
22:15	62.1	62.1	62.1	76	54.4	0	0	---	0.00	30.058 
22:20	61.8	61.8	61.8	77	54.5	0	0	---	0.00	30.058 
22:25	61.5	61.5	61.5	77	54.2	0	0	---	0.00	30.058 
22:30	61.3	61.3	61.3	78	54.4	0	0	---	0.00	30.063 
22:35	61.3	61.3	61.3	79	54.7	0	0	---	0.00	30.063 
22:40	61.3	61.3	61.3	78	54.4	0	0	---	0.00	30.063 
22:45	61.2	61.2	61.2	79	54.6	0	0	---	0.00	30.068 
22:50	61.0	61.0	61.0	79	54.4	0	0	---	0.00	30.068 
22:55	60.9	60.9	60.9	79	54.3	0	0	---	0.00	30.068 
23:00	60.9	60.9	60.9	80	54.7	0	0	---	0.00	30.074 
23:05	60.9	60.9	60.9	80	54.7	0	0	---	0.00	30.074 
23:10	60.7	60.7	60.7	80	54.5	0	0	---	0.00	30.074 
23:15	60.7	60.7	60.7	80	54.5	0	0	---	0.00	30.070 
23:20	60.7	60.7	60.7	80	54.5	0	0	---	0.00	30.070 
23:25	60.5	60.5	60.5	80	54.3	0	0	---	0.00	30.070 
23:30	60.5	60.5	60.5	80	54.3	0	0	---	0.00	30.066 
23:35	60.4	60.4	60.4	80	54.2	0	0	---	0.00	30.066 
23:40	60.4	60.4	60.4	81	54.5	0	0	---	0.00	30.066 
23:45	60.4	60.4	60.4	81	54.5	0	0	---	0.00	30.069 
23:50	60.2	60.2	60.2	81	54.3	0	0	---	0.00	30.069 
23:55	60.1	60.1	60.1	81	54.2	0	0	---	0.00	30.069 

CoCoRaHS
IN-AL-39
A2 Web Hosting
Creative Commons License
GoDaddy
search engine by freefind advanced

loaded 2018-11-12 15:49:21 • last modified 2010-11-18 10:43:29
Privacy PolicyDisclaimer
• wx.awcolley.com is powered by PmWiki v.2002016 •
• all content (unless otherwise noted) © 2018 A W Colley